This is the latest recevied weather packets stored in our database for station/object F5MAP-5. If no packets are shown the sender has not sent any weather packets the latest 10 day(s).
| Time | Temp. | Humidity | Pressure | Rain* | Wind** | Luminosity | Snow |
|---|---|---|---|---|---|---|---|
| 1778245332 | 21.67° C | 57% | 1014.8 hPa | 0 mm | - | 765 W/m² | - |
| 1778244733 | 21.11° C | 58% | 1015 hPa | 0 mm | - | 777 W/m² | - |
| 1778244132 | 21.11° C | 57% | 1015.1 hPa | 0 mm | - | 777 W/m² | - |
| 1778243532 | 21.11° C | 59% | 1015.2 hPa | 0 mm | - | 788 W/m² | - |
| 1778242932 | 20.56° C | 61% | 1015.3 hPa | 0 mm | - | 802 W/m² | - |
| 1778242333 | 20.56° C | 61% | 1015.4 hPa | 0 mm | - | 789 W/m² | - |
| 1778241732 | 20° C | 63% | 1015.5 hPa | 0 mm | - | 793 W/m² | - |
| 1778241132 | 20.56° C | 62% | 1015.6 hPa | 0 mm | - | 810 W/m² | - |
| 1778240532 | 20° C | 63% | 1015.7 hPa | 0 mm | - | 814 W/m² | - |
| 1778239938 | 20° C | 63% | 1015.7 hPa | 0 mm | - | 810 W/m² | - |
| 1778238732 | 19.44° C | 64% | 1016 hPa | 0 mm | - | 817 W/m² | - |
| 1778238132 | 18.89° C | 66% | 1016.1 hPa | 0 mm | - | 814 W/m² | - |
| 1778237532 | 18.89° C | 66% | 1016.1 hPa | 0 mm | - | 812 W/m² | - |
| 1778236932 | 18.33° C | 69% | 1016.2 hPa | 0 mm | - | 800 W/m² | - |
| 1778236332 | 17.78° C | 69% | 1016.3 hPa | 0 mm | - | 796 W/m² | - |
| 1778235132 | 17.22° C | 72% | 1016.5 hPa | 0 mm | - | 782 W/m² | - |
| 1778234532 | 16.67° C | 76% | 1016.5 hPa | 0 mm | - | 770 W/m² | - |
| 1778233932 | 16.11° C | 78% | 1016.6 hPa | 0 mm | - | 763 W/m² | - |
| 1778233332 | 15.56° C | 82% | 1016.7 hPa | 0 mm | - | 742 W/m² | - |
| 1778232731 | 15° C | 85% | 1016.7 hPa | 0 mm | - | 715 W/m² | - |
| 1778232131 | 14.44° C | 87% | 1016.8 hPa | 0 mm | - | 717 W/m² | - |
| 1778231531 | 13.33° C | 89% | 1016.8 hPa | 0 mm | - | 710 W/m² | - |
| 1778230931 | 12.78° C | 90% | 1017.1 hPa | 0 mm | - | 700 W/m² | - |
| 1778230333 | 12.78° C | 90% | 1017 hPa | 0 mm | - | 367 W/m² | - |
| 1778229732 | 12.22° C | 91% | 1017 hPa | 0 mm | - | 673 W/m² | - |
* Rain latest hour (hover to see other rain measurements)
** Current wind speed in m/s (hover to see current wind gust speed)